Allentown, PA (18101)

12:04 AM EST on January 17, 2017 (GMT -0500)
South Filmore Street | | Change Station
Active Advisory: Freezing Rain Advisory

Elev 341 ft 40.59 °N, 75.45 °W | Updated 26 seconds ago

Overcast
Overcast
36.7 °F
Feels Like 37 °F
N
0.0
Wind Variable Wind from SE

Today
High -- | Low -- °F
--% Chance of Precip.
Yesterday
High -- | Low -- °F
Precip. -- in
Pressure 30.31 in
Visibility 10.0 miles
Clouds Overcast 2900 ft
Windchill 37 °F
Dew Point 26 °F
Humidity 65%
Rainfall 0.00 in
Snow Depth Not available.
7:22 AM 5:02 PM
Waning Gibbous, 75% visible
METAR KXLL 170455Z AUTO 00000KT 10SM OVC029 02/M02 A3031 RMK AO2
Pressure 30.31 in
Visibility 10.0 miles
Clouds Overcast 2900 ft
Windchill 37 °F
Dew Point 26 °F
Humidity 65%
Rainfall 0.00 in
Snow Depth Not available.
7:22 AM 5:02 PM
Waning Gibbous, 75% visible
METAR KXLL 170455Z AUTO 00000KT 10SM OVC029 02/M02 A3031 RMK AO2

Get Your Daily Forecast Email!

Thanks for signing up!

Be on the lookout for a verification email in your inbox.

You'll start receiving the daily forecast at 8 AM.

×

10-Day Weather Forecast

Almanac

Astronomy

Jan. 17, 2017 Rise Set
Actual Time
Civil Twilight
Nautical Twilight
Astronomical Twilight
Moon
Length of Visible Light
Length of Day
Tomorrow will be .
, % of the Moon is Illuminated

Today's Extremes

State Highs State Lows

Community

WunderPhotos

Upload Photos

1,962,540 photos uploaded!

WunderBlog® & News

Nearby

Air Quality

  Air Quality AQ Index Pollutant
Not available.

Snow Depth

Station Depth Elevation

Earthquake Activity

City Distance Mag. Time & Date
Minimum magnitude displayed is 2.5.

Coastal Water Temperatures

Place Temperature

Stations

Nearby Weather Stations

Station Location Temp. Windchill Dew Point Humidity Wind Precip. Elev Updated Type
                   

Watches & Warnings

Freezing Rain Advisory
Issued: 11:39 PM EST Jan. 16, 2017 – National Weather Service

... Freezing Rain Advisory remains in effect until 10 am EST
Tuesday...

* locations... southern parts of the Lehigh Valley including
Allentown southwestward toward reading.

* Hazard types... spotty freezing rain.

* Timing... scattered light freezing rain showers may move into
the area overnight with a steadier period of light freezing rain
around sunrise.

* Ice accumulations... around a trace.

* Impacts... spotty icing may create slippery Road conditions.

* Temperatures... dropping to around freezing near sunrise Tuesday
then rising above freezing by mid-morning Tuesday.

Precautionary/preparedness actions...

A Freezing Rain Advisory means that periods of freezing rain or
freezing drizzle will cause travel difficulties. Be prepared for
slippery roads. Slow down and use caution while driving.